ΕΜΥ, Εθνική Μετεωρολογική Υπηρεσία - Δελτία Καιρού, Προγνώσεις

ΑΕΡΟΝΑΥΤΙΛΙΑ

GREEK AIRPORTS CODES

TAF LGZA 240800Z 2409/2418 17015KT 9999 SCT012 SCT018 BKN020 TEMPO 2409/2418 5000 RA TEMPO 2409/2416 3000 TSRA SCT012 SCT016CB BKN020=

EUROPEAN AIRPORTS CODES